Time;durP1;ratioP1;P1;durP2;ratioP2;P2;SDS_P1;SDS_P2;PMS_P1;PMS_P2;Temp;Humidity;BMP_temperature;BMP_pressure;BME280_temperature;BME280_humidity;BME280_pressure;Samples;Min_cycle;Max_cycle;Signal;HPM_P1;HPM_P2
2022/11/15 00:00:28;;;;;;;;;;;21.90;59.60;;;;;;1539977;75;664;-63
2022/11/15 00:02:30;;;;;;;;;;;21.90;59.60;;;;;;1530445;76;1210;-62
2022/11/15 00:04:32;;;;;;;;;;;21.80;59.50;;;;;;1541166;76;820;-62
2022/11/15 00:06:34;;;;;;;;;;;21.80;59.60;;;;;;1541830;76;1474;-63
2022/11/15 00:08:36;;;;;;;;;;;21.80;59.70;;;;;;1541696;76;675;-62
2022/11/15 00:10:38;;;;;;;;;;;21.80;59.70;;;;;;1543094;76;675;-63
2022/11/15 00:12:40;;;;;;;;;;;21.80;59.60;;;;;;1524338;76;1143;-62
2022/11/15 00:14:41;;;;;;;;;;;21.80;59.50;;;;;;1543279;76;664;-63
2022/11/15 00:16:43;;;;;;;;;;;21.80;59.60;;;;;;1541826;76;696;-62
2022/11/15 00:18:45;;;;;;;;;;;21.80;59.60;;;;;;1542189;76;1940;-63
2022/11/15 00:20:47;;;;;;;;;;;21.80;59.50;;;;;;1543064;76;1485;-63
2022/11/15 00:22:49;;;;;;;;;;;21.80;59.40;;;;;;1552694;76;1160;-62
2022/11/15 00:24:51;;;;;;;;;;;21.80;59.50;;;;;;1543594;76;755;-63
2022/11/15 00:26:53;;;;;;;;;;;21.80;59.50;;;;;;1540295;76;668;-62
2022/11/15 00:28:54;;;;;;;;;;;21.80;59.50;;;;;;1530375;76;649;-62
2022/11/15 00:31:03;;;;;;;;;;;21.80;59.50;;;;;;1554506;75;686;-62
2022/11/15 00:33:05;;;;;;;;;;;21.80;59.50;;;;;;1528021;76;1111;-62
2022/11/15 00:35:07;;;;;;;;;;;21.80;59.40;;;;;;1543280;76;1629;-61
2022/11/15 00:37:09;;;;;;;;;;;21.80;59.50;;;;;;1550778;76;664;-62
2022/11/15 00:39:11;;;;;;;;;;;21.80;59.40;;;;;;1539174;76;1927;-62
2022/11/15 00:41:13;;;;;;;;;;;21.80;59.40;;;;;;1542036;76;618;-61
2022/11/15 00:43:15;;;;;;;;;;;21.90;59.30;;;;;;1535198;76;1095;-62
2022/11/15 00:45:17;;;;;;;;;;;21.90;59.40;;;;;;1556854;75;680;-62
2022/11/15 00:47:19;;;;;;;;;;;21.90;59.30;;;;;;1537977;76;675;-62
2022/11/15 00:49:20;;;;;;;;;;;21.90;59.20;;;;;;1542776;76;1494;-62
2022/11/15 00:51:22;;;;;;;;;;;21.90;59.30;;;;;;1542911;76;1170;-62
2022/11/15 00:53:24;;;;;;;;;;;21.90;59.20;;;;;;1540452;76;685;-62
2022/11/15 00:55:26;;;;;;;;;;;21.90;59.20;;;;;;1537286;76;646;-62
2022/11/15 00:57:28;;;;;;;;;;;22.00;59.20;;;;;;1543452;76;696;-63
2022/11/15 00:59:30;;;;;;;;;;;21.90;59.20;;;;;;1544842;75;1951;-63
2022/11/15 01:01:32;;;;;;;;;;;21.90;59.40;;;;;;1543228;76;1204;-64
2022/11/15 01:03:35;;;;;;;;;;;21.80;59.30;;;;;;1565639;73;3070;-69
2022/11/15 01:05:40;;;;;;;;;;;21.80;59.40;;;;;;1572867;74;810;-69
2022/11/15 01:07:42;;;;;;;;;;;21.80;59.50;;;;;;1562844;74;682;-69
2022/11/15 01:09:44;;;;;;;;;;;21.80;59.60;;;;;;1576026;74;743;-70
2022/11/15 01:11:46;;;;;;;;;;;21.80;59.70;;;;;;1563797;74;702;-69
2022/11/15 01:13:48;;;;;;;;;;;21.70;59.70;;;;;;1576733;74;1226;-69
2022/11/15 01:15:49;;;;;;;;;;;21.70;59.70;;;;;;1574732;74;794;-69
2022/11/15 01:17:51;;;;;;;;;;;21.80;59.80;;;;;;1580738;74;1236;-69
2022/11/15 01:19:53;;;;;;;;;;;21.80;59.70;;;;;;1574428;74;1933;-70
2022/11/15 01:21:55;;;;;;;;;;;21.80;59.60;;;;;;1578581;74;661;-69
2022/11/15 01:23:57;;;;;;;;;;;21.80;59.60;;;;;;1578504;74;1131;-69
2022/11/15 01:26:00;;;;;;;;;;;21.80;59.50;;;;;;1578397;74;684;-69
2022/11/15 01:28:01;;;;;;;;;;;21.80;59.40;;;;;;1581809;74;689;-70
2022/11/15 01:30:04;;;;;;;;;;;21.90;59.40;;;;;;1574325;74;1359;-69
2022/11/15 01:32:06;;;;;;;;;;;21.90;59.20;;;;;;1576961;74;661;-67
2022/11/15 01:34:08;;;;;;;;;;;21.90;59.10;;;;;;1578697;74;1104;-69
2022/11/15 01:36:14;;;;;;;;;;;21.90;59.20;;;;;;1566947;74;724;-69
2022/11/15 01:38:16;;;;;;;;;;;21.90;59.10;;;;;;1580718;74;669;-69
2022/11/15 01:40:17;;;;;;;;;;;21.90;59.10;;;;;;1577861;74;1938;-69
2022/11/15 01:42:19;;;;;;;;;;;21.90;59.10;;;;;;1566206;74;1134;-69
2022/11/15 01:44:40;;;;;;;;;;;21.90;59.20;;;;;;1565450;74;1605;-70
2022/11/15 01:46:42;;;;;;;;;;;21.90;59.20;;;;;;1579309;74;644;-70
2022/11/15 01:48:43;;;;;;;;;;;21.90;59.20;;;;;;1576574;74;694;-71
2022/11/15 01:50:45;;;;;;;;;;;21.90;59.20;;;;;;1578473;74;625;-70
2022/11/15 01:52:47;;;;;;;;;;;21.80;59.20;;;;;;1576994;74;1175;-69
2022/11/15 01:54:50;;;;;;;;;;;21.80;59.40;;;;;;1578148;74;677;-70
2022/11/15 01:56:54;;;;;;;;;;;21.70;59.50;;;;;;1577530;74;788;-70
2022/11/15 01:58:56;;;;;;;;;;;21.70;59.70;;;;;;1578635;74;1926;-70
2022/11/15 02:00:58;;;;;;;;;;;21.70;59.80;;;;;;1588901;74;717;-71
2022/11/15 02:02:59;;;;;;;;;;;21.60;59.80;;;;;;1578734;74;1189;-71
2022/11/15 02:05:01;;;;;;;;;;;21.60;60.00;;;;;;1563332;74;828;-70
2022/11/15 02:07:03;;;;;;;;;;;21.60;60.10;;;;;;1561923;74;680;-70
2022/11/15 02:09:05;;;;;;;;;;;21.50;60.20;;;;;;1575926;74;648;-72
2022/11/15 02:11:10;;;;;;;;;;;21.50;60.30;;;;;;1566663;75;692;-70
2022/11/15 02:13:12;;;;;;;;;;;21.60;60.30;;;;;;1574440;74;1348;-68
2022/11/15 02:15:14;;;;;;;;;;;21.60;60.30;;;;;;1573239;74;658;-70
2022/11/15 02:17:20;;;;;;;;;;;21.60;60.30;;;;;;1574608;74;694;-69
2022/11/15 02:19:30;;;;;;;;;;;21.60;60.30;;;;;;1575567;74;1942;-71
2022/11/15 02:21:38;;;;;;;;;;;21.60;60.30;;;;;;1526772;74;1025;-70
2022/11/15 02:23:42;;;;;;;;;;;21.60;60.40;;;;;;1577048;74;1136;-71
2022/11/15 02:26:02;;;;;;;;;;;21.60;60.40;;;;;;1576513;74;1882;-68
2022/11/15 02:28:14;;;;;;;;;;;21.60;60.30;;;;;;1580642;74;1587;-69
2022/11/15 02:30:24;;;;;;;;;;;21.70;60.30;;;;;;1567849;74;703;-70
2022/11/15 02:32:27;;;;;;;;;;;21.70;60.00;;;;;;1578065;74;1133;-70
2022/11/15 02:34:31;;;;;;;;;;;21.80;59.80;;;;;;1576943;74;1160;-69
2022/11/15 02:36:44;;;;;;;;;;;21.80;59.80;;;;;;1547237;75;1154;-69
2022/11/15 02:39:03;;;;;;;;;;;21.80;59.80;;;;;;1577235;74;645;-70
2022/11/15 02:41:05;;;;;;;;;;;21.70;60.20;;;;;;1570686;74;1582;-70
2022/11/15 02:45:29;;;;;;;;;;;21.70;60.30;;;;;;1564979;74;1915;-71
2022/11/15 02:47:32;;;;;;;;;;;21.70;60.10;;;;;;1563622;74;764;-70
2022/11/15 02:49:38;;;;;;;;;;;21.70;60.00;;;;;;1577100;74;685;-70
2022/11/15 02:51:38;;;;;;;;;;;21.80;59.70;;;;;;1575111;75;1899;-70
2022/11/15 02:53:39;;;;;;;;;;;21.80;59.50;;;;;;1577533;74;1142;-70
2022/11/15 02:55:42;;;;;;;;;;;21.90;59.30;;;;;;1576204;74;1522;-71
2022/11/15 02:57:45;;;;;;;;;;;22.00;59.20;;;;;;1576322;74;651;-70
2022/11/15 03:00:03;;;;;;;;;;;22.00;59.00;;;;;;1581004;74;1930;-73
2022/11/15 03:02:18;;;;;;;;;;;22.10;59.00;;;;;;1566103;74;734;-70
2022/11/15 03:04:21;;;;;;;;;;;22.10;58.70;;;;;;1577120;74;823;-70
2022/11/15 03:06:25;;;;;;;;;;;22.10;58.30;;;;;;1562621;74;1920;-70
2022/11/15 03:08:28;;;;;;;;;;;22.10;58.30;;;;;;1567682;74;1588;-70
2022/11/15 03:10:32;;;;;;;;;;;22.10;58.20;;;;;;1578676;74;627;-70
2022/11/15 03:12:38;;;;;;;;;;;22.10;58.20;;;;;;1566818;74;1826;-71
2022/11/15 03:14:54;;;;;;;;;;;22.10;58.20;;;;;;1576407;74;1643;-70
2022/11/15 03:17:00;;;;;;;;;;;22.20;58.10;;;;;;1515914;75;1101;-70
2022/11/15 03:19:15;;;;;;;;;;;22.20;58.10;;;;;;1577391;74;731;-70
2022/11/15 03:21:17;;;;;;;;;;;22.10;58.10;;;;;;1572650;74;729;-70
2022/11/15 03:23:18;;;;;;;;;;;22.10;58.40;;;;;;1578041;74;1573;-70
2022/11/15 03:25:21;;;;;;;;;;;22.00;58.80;;;;;;1577646;74;718;-70
2022/11/15 03:27:24;;;;;;;;;;;21.90;59.10;;;;;;1578765;74;837;-69
2022/11/15 03:29:27;;;;;;;;;;;21.90;59.40;;;;;;1578678;74;709;-70
2022/11/15 03:31:48;;;;;;;;;;;21.80;59.60;;;;;;1577308;74;1819;-70
2022/11/15 03:33:51;;;;;;;;;;;21.80;59.90;;;;;;1578153;74;1291;-70
2022/11/15 03:35:53;;;;;;;;;;;21.70;60.10;;;;;;1578574;74;686;-68
2022/11/15 03:37:56;;;;;;;;;;;21.70;60.30;;;;;;1577301;74;1474;-69
2022/11/15 03:39:58;;;;;;;;;;;21.70;60.40;;;;;;1578159;74;1937;-69
2022/11/15 03:42:02;;;;;;;;;;;21.70;60.60;;;;;;1574372;74;543;-70
2022/11/15 03:44:05;;;;;;;;;;;21.60;60.70;;;;;;1578606;74;1106;-70
2022/11/15 03:46:09;;;;;;;;;;;21.60;60.80;;;;;;1578444;74;754;-72
2022/11/15 03:48:11;;;;;;;;;;;21.60;60.90;;;;;;1574966;74;1088;-70
2022/11/15 03:50:14;;;;;;;;;;;21.60;61.00;;;;;;1569852;74;681;-70
2022/11/15 03:52:18;;;;;;;;;;;21.60;61.10;;;;;;1577942;74;1595;-70
2022/11/15 03:54:19;;;;;;;;;;;21.60;61.30;;;;;;1569004;74;788;-71
2022/11/15 03:56:21;;;;;;;;;;;21.60;61.40;;;;;;1578705;74;674;-70
2022/11/15 03:58:23;;;;;;;;;;;21.60;61.30;;;;;;1583496;74;693;-72
2022/11/15 04:00:25;;;;;;;;;;;21.60;61.30;;;;;;1580983;74;1929;-70
2022/11/15 04:02:28;;;;;;;;;;;21.60;61.30;;;;;;1578333;74;1150;-71
2022/11/15 04:04:29;;;;;;;;;;;21.60;61.40;;;;;;1570398;74;756;-70
2022/11/15 04:06:31;;;;;;;;;;;21.60;61.50;;;;;;1577212;75;1741;-70
2022/11/15 04:08:33;;;;;;;;;;;21.70;61.60;;;;;;1576346;74;668;-70
2022/11/15 04:10:35;;;;;;;;;;;21.60;61.40;;;;;;1577462;74;645;-71
2022/11/15 04:12:39;;;;;;;;;;;21.70;61.50;;;;;;1572459;74;1205;-72
2022/11/15 04:15:06;;;;;;;;;;;21.70;61.40;;;;;;1577391;74;685;-70
2022/11/15 04:16:44;;;;;;;;;;;21.70;61.40;;;;;;1573368;75;1479;-70
2022/11/15 04:24:11;;;;;;;;;;;21.70;61.40;;;;;;1577416;74;1360;-70
2022/11/15 04:25:33;;;;;;;;;;;21.70;61.30;;;;;;1578043;75;1685;-70
2022/11/15 04:27:35;;;;;;;;;;;21.70;61.30;;;;;;1579314;74;828;-70
2022/11/15 04:29:37;;;;;;;;;;;21.70;61.40;;;;;;1575799;74;742;-70
2022/11/15 04:31:39;;;;;;;;;;;21.70;61.30;;;;;;1578255;74;577;-70
2022/11/15 04:33:41;;;;;;;;;;;21.70;61.30;;;;;;1579875;74;1592;-70
2022/11/15 04:35:43;;;;;;;;;;;21.60;61.30;;;;;;1578949;74;639;-71
2022/11/15 04:37:45;;;;;;;;;;;21.70;61.40;;;;;;1593807;74;676;-70
2022/11/15 04:39:46;;;;;;;;;;;21.70;61.30;;;;;;1580408;74;1920;-70
2022/11/15 04:41:48;;;;;;;;;;;21.70;61.30;;;;;;1585428;74;754;-70
2022/11/15 04:43:50;;;;;;;;;;;21.70;61.30;;;;;;1578623;74;1146;-70
2022/11/15 04:45:52;;;;;;;;;;;21.70;61.30;;;;;;1578875;74;799;-70
2022/11/15 04:47:54;;;;;;;;;;;21.70;61.30;;;;;;1578030;74;1593;-71
2022/11/15 04:49:56;;;;;;;;;;;21.80;61.40;;;;;;1578991;74;715;-70
2022/11/15 04:51:58;;;;;;;;;;;21.80;61.30;;;;;;1587274;74;661;-70
2022/11/15 04:54:00;;;;;;;;;;;21.70;61.40;;;;;;1575661;74;1242;-70
2022/11/15 04:56:01;;;;;;;;;;;21.70;61.30;;;;;;1578872;74;738;-70
2022/11/15 04:58:03;;;;;;;;;;;21.70;61.30;;;;;;1579014;74;774;-70
2022/11/15 05:00:06;;;;;;;;;;;21.70;61.40;;;;;;1578430;74;1934;-70
2022/11/15 05:02:07;;;;;;;;;;;21.80;61.40;;;;;;1582217;74;1370;-69
2022/11/15 05:04:21;;;;;;;;;;;21.80;61.50;;;;;;1583491;74;1064;-70
2022/11/15 05:06:23;;;;;;;;;;;21.70;61.50;;;;;;1578998;74;806;-71
2022/11/15 05:08:25;;;;;;;;;;;21.70;61.50;;;;;;1571349;74;681;-71
2022/11/15 05:10:27;;;;;;;;;;;21.70;61.60;;;;;;1576931;74;776;-71
2022/11/15 05:12:29;;;;;;;;;;;21.70;61.60;;;;;;1573574;74;1218;-71
2022/11/15 05:14:31;;;;;;;;;;;21.80;61.50;;;;;;1574790;74;750;-71
2022/11/15 05:16:33;;;;;;;;;;;21.70;61.50;;;;;;1578652;74;1544;-70
2022/11/15 05:18:35;;;;;;;;;;;21.70;61.50;;;;;;1580056;74;633;-70
2022/11/15 05:20:37;;;;;;;;;;;21.70;61.60;;;;;;1581705;74;1942;-70
2022/11/15 05:22:39;;;;;;;;;;;21.70;61.50;;;;;;1568031;74;1167;-71
2022/11/15 05:24:40;;;;;;;;;;;21.80;61.50;;;;;;1579336;74;754;-70
2022/11/15 05:26:42;;;;;;;;;;;21.70;61.60;;;;;;1578418;74;739;-70
2022/11/15 05:28:44;;;;;;;;;;;21.70;61.50;;;;;;1581830;74;698;-67
2022/11/15 05:30:46;;;;;;;;;;;21.70;61.50;;;;;;1577598;74;1381;-70
2022/11/15 05:32:48;;;;;;;;;;;21.70;61.60;;;;;;1578348;74;1135;-71
2022/11/15 05:34:50;;;;;;;;;;;21.80;61.60;;;;;;1580578;74;700;-70
2022/11/15 05:36:52;;;;;;;;;;;21.80;61.70;;;;;;1578358;74;657;-72
2022/11/15 05:38:54;;;;;;;;;;;21.80;61.60;;;;;;1565548;75;517;-69
2022/11/15 05:40:55;;;;;;;;;;;21.80;61.70;;;;;;1588726;74;1929;-70
2022/11/15 05:42:58;;;;;;;;;;;21.80;61.60;;;;;;1574421;74;1122;-71
2022/11/15 05:44:59;;;;;;;;;;;21.80;61.60;;;;;;1574425;74;1668;-70
2022/11/15 05:47:02;;;;;;;;;;;21.80;61.70;;;;;;1578753;74;682;-71
2022/11/15 05:49:04;;;;;;;;;;;21.70;61.50;;;;;;1569251;75;709;-70
2022/11/15 05:51:06;;;;;;;;;;;21.80;61.60;;;;;;1546170;75;696;-70
2022/11/15 05:53:08;;;;;;;;;;;21.80;61.60;;;;;;1565382;74;1135;-69
2022/11/15 05:55:10;;;;;;;;;;;21.80;61.80;;;;;;1569385;74;789;-69
2022/11/15 05:57:12;;;;;;;;;;;21.80;61.80;;;;;;1571397;74;1540;-69
2022/11/15 05:59:14;;;;;;;;;;;21.80;61.80;;;;;;1571023;74;763;-70
2022/11/15 06:01:15;;;;;;;;;;;21.80;61.70;;;;;;1580031;74;1926;-72
2022/11/15 06:03:17;;;;;;;;;;;21.80;61.80;;;;;;1582330;74;1156;-70
2022/11/15 06:05:19;;;;;;;;;;;21.80;61.70;;;;;;1581195;74;802;-70
2022/11/15 06:07:21;;;;;;;;;;;21.80;61.70;;;;;;1586328;74;841;-70
2022/11/15 06:09:23;;;;;;;;;;;21.80;61.70;;;;;;1586853;74;914;-70
2022/11/15 06:11:25;;;;;;;;;;;21.80;61.70;;;;;;1573057;74;1538;-71
2022/11/15 06:13:27;;;;;;;;;;;21.80;61.70;;;;;;1577512;74;1218;-71
2022/11/15 06:15:29;;;;;;;;;;;21.80;61.70;;;;;;1577979;74;731;-72
2022/11/15 06:17:30;;;;;;;;;;;21.80;61.70;;;;;;1579496;74;703;-71
2022/11/15 06:19:32;;;;;;;;;;;21.80;61.70;;;;;;1578654;74;693;-68
2022/11/15 06:21:34;;;;;;;;;;;21.80;62.10;;;;;;1571278;74;1910;-65
2022/11/15 06:23:36;;;;;;;;;;;21.80;62.20;;;;;;1584274;74;1126;-66
2022/11/15 06:25:38;;;;;;;;;;;21.80;62.00;;;;;;1568613;74;1592;-65
2022/11/15 06:27:40;;;;;;;;;;;21.80;62.00;;;;;;1576489;74;815;-67
2022/11/15 06:29:42;;;;;;;;;;;21.80;61.60;;;;;;1567603;74;757;-65
2022/11/15 06:31:44;;;;;;;;;;;21.80;61.50;;;;;;1578331;74;826;-68
2022/11/15 06:33:46;;;;;;;;;;;21.80;61.40;;;;;;1579729;74;1132;-65
2022/11/15 06:35:48;;;;;;;;;;;21.80;61.10;;;;;;1578857;74;702;-67
2022/11/15 06:37:50;;;;;;;;;;;21.80;61.00;;;;;;1573722;74;731;-61
2022/11/15 06:39:52;;;;;;;;;;;21.80;60.80;;;;;;1586288;74;1592;-64
2022/11/15 06:41:54;;;;;;;;;;;21.80;60.90;;;;;;1563490;74;1932;-65
2022/11/15 06:43:57;;;;;;;;;;;21.90;61.00;;;;;;1578245;74;1112;-65
2022/11/15 06:45:59;;;;;;;;;;;21.80;61.00;;;;;;1577307;74;632;-65
2022/11/15 06:48:01;;;;;;;;;;;21.80;60.90;;;;;;1577231;74;707;-65
2022/11/15 06:50:03;;;;;;;;;;;21.90;60.90;;;;;;1569834;74;728;-66
2022/11/15 06:52:05;;;;;;;;;;;21.80;60.70;;;;;;1577717;74;680;-65
2022/11/15 06:54:07;;;;;;;;;;;21.80;60.60;;;;;;1578167;74;1588;-79
2022/11/15 06:56:09;;;;;;;;;;;21.80;60.60;;;;;;1578985;74;694;-66
2022/11/15 06:58:10;;;;;;;;;;;21.80;60.50;;;;;;1574763;74;947;-66
2022/11/15 07:00:13;;;;;;;;;;;21.80;60.40;;;;;;1579460;74;695;-67
2022/11/15 07:02:15;;;;;;;;;;;21.80;60.30;;;;;;1579197;74;1914;-65
2022/11/15 07:04:17;;;;;;;;;;;21.80;60.30;;;;;;1583320;71;3070;-66
2022/11/15 07:06:19;;;;;;;;;;;21.80;60.30;;;;;;1569013;74;647;-66
2022/11/15 07:08:21;;;;;;;;;;;21.80;60.40;;;;;;1570452;74;1471;-66
2022/11/15 07:10:24;;;;;;;;;;;21.90;59.90;;;;;;1561986;74;707;-66
2022/11/15 07:12:26;;;;;;;;;;;22.00;58.60;;;;;;1570940;74;717;-66
2022/11/15 07:14:28;;;;;;;;;;;21.90;57.30;;;;;;1539934;74;1182;-66
2022/11/15 07:16:30;;;;;;;;;;;21.90;56.40;;;;;;1546001;75;851;-66
2022/11/15 07:18:31;;;;;;;;;;;21.80;55.60;;;;;;1542243;77;654;-67
2022/11/15 07:20:33;;;;;;;;;;;21.70;55.00;;;;;;1534906;75;625;-66
2022/11/15 07:22:35;;;;;;;;;;;21.70;54.20;;;;;;1538995;75;1945;-65
2022/11/15 07:24:37;;;;;;;;;;;21.70;53.80;;;;;;1539218;75;1068;-65
2022/11/15 07:26:39;;;;;;;;;;;21.50;52.90;;;;;;1537313;76;653;-66
2022/11/15 07:28:41;;;;;;;;;;;21.50;52.70;;;;;;1540121;76;654;-67
2022/11/15 07:30:43;;;;;;;;;;;21.50;52.40;;;;;;1537489;75;621;-66
2022/11/15 07:32:46;;;;;;;;;;;21.40;51.90;;;;;;1532271;75;615;-66
2022/11/15 07:34:48;;;;;;;;;;;21.40;51.40;;;;;;1538766;75;1207;-65
2022/11/15 07:36:50;;;;;;;;;;;21.40;51.30;;;;;;1539652;75;1478;-65
2022/11/15 07:38:51;;;;;;;;;;;21.30;51.00;;;;;;1538251;75;672;-68
2022/11/15 07:40:57;;;;;;;;;;;21.20;50.60;;;;;;1535364;75;1929;-67
2022/11/15 07:43:01;;;;;;;;;;;21.20;50.60;;;;;;1531121;76;1144;-66
2022/11/15 07:45:03;;;;;;;;;;;21.10;50.20;;;;;;1533201;76;1078;-67
2022/11/15 07:47:04;;;;;;;;;;;21.10;50.00;;;;;;1527387;75;760;-67
2022/11/15 07:49:06;;;;;;;;;;;21.10;49.70;;;;;;1540286;75;630;-66
2022/11/15 07:51:10;;;;;;;;;;;21.10;49.60;;;;;;1542681;75;1482;-66
2022/11/15 07:53:12;;;;;;;;;;;21.00;49.40;;;;;;1541482;75;1105;-66
2022/11/15 07:55:14;;;;;;;;;;;21.00;49.20;;;;;;1540589;75;676;-67
2022/11/15 07:57:15;;;;;;;;;;;21.00;49.20;;;;;;1528644;75;680;-67
2022/11/15 07:59:19;;;;;;;;;;;21.00;49.20;;;;;;1530008;76;674;-66
2022/11/15 08:01:21;;;;;;;;;;;21.00;49.00;;;;;;1532898;75;1912;-66
2022/11/15 08:03:22;;;;;;;;;;;21.00;48.90;;;;;;1543062;75;1219;-66
2022/11/15 08:05:24;;;;;;;;;;;20.90;48.90;;;;;;1541912;75;1449;-66
2022/11/15 08:07:28;;;;;;;;;;;21.00;48.90;;;;;;1546255;75;634;-64
2022/11/15 08:09:30;;;;;;;;;;;21.00;48.80;;;;;;1556039;75;552;-64
2022/11/15 08:11:32;;;;;;;;;;;21.00;48.50;;;;;;1536398;76;594;-64
2022/11/15 08:13:34;;;;;;;;;;;21.00;48.70;;;;;;1537554;75;1192;-64
2022/11/15 08:15:35;;;;;;;;;;;21.00;48.70;;;;;;1540469;75;553;-64
2022/11/15 08:17:37;;;;;;;;;;;21.00;48.50;;;;;;1540198;75;740;-64
2022/11/15 08:19:39;;;;;;;;;;;21.00;48.60;;;;;;1537813;75;1403;-62
2022/11/15 08:21:41;;;;;;;;;;;21.00;48.40;;;;;;1545243;75;1927;-64
2022/11/15 08:23:43;;;;;;;;;;;21.00;48.40;;;;;;1544373;75;1146;-64
2022/11/15 08:25:45;;;;;;;;;;;21.00;48.40;;;;;;1531019;75;672;-64
2022/11/15 08:27:47;;;;;;;;;;;21.00;48.40;;;;;;1531082;76;682;-64
2022/11/15 08:29:49;;;;;;;;;;;21.00;48.30;;;;;;1535438;77;633;-63
2022/11/15 08:31:51;;;;;;;;;;;21.00;48.30;;;;;;1542615;75;1492;-64
2022/11/15 08:33:53;;;;;;;;;;;21.00;48.20;;;;;;1532016;75;1148;-62
2022/11/15 08:35:59;;;;;;;;;;;21.00;48.20;;;;;;1532722;75;711;-64
2022/11/15 08:38:00;;;;;;;;;;;21.00;48.10;;;;;;1546392;75;662;-64
2022/11/15 08:40:02;;;;;;;;;;;21.00;47.80;;;;;;1536016;75;677;-64
2022/11/15 08:42:04;;;;;;;;;;;20.90;47.80;;;;;;1531077;76;1925;-64
2022/11/15 08:44:06;;;;;;;;;;;21.00;47.80;;;;;;1527248;75;1126;-66
2022/11/15 08:46:09;;;;;;;;;;;21.00;47.80;;;;;;1540032;75;1288;-65
2022/11/15 08:48:11;;;;;;;;;;;21.00;47.70;;;;;;1549677;75;677;-64
2022/11/15 08:50:13;;;;;;;;;;;20.90;47.70;;;;;;1533877;77;677;-64
2022/11/15 08:52:15;;;;;;;;;;;20.90;47.80;;;;;;1534041;76;755;-63
2022/11/15 08:54:17;;;;;;;;;;;20.90;47.60;;;;;;1546663;75;1154;-63
2022/11/15 08:56:18;;;;;;;;;;;21.00;47.60;;;;;;1538990;75;689;-64
2022/11/15 08:58:20;;;;;;;;;;;20.90;47.60;;;;;;1535923;75;684;-64
2022/11/15 09:00:22;;;;;;;;;;;20.90;47.60;;;;;;1537332;75;1477;-64
2022/11/15 09:02:24;;;;;;;;;;;20.90;47.50;;;;;;1539729;75;1928;-64
2022/11/15 09:04:26;;;;;;;;;;;21.00;47.40;;;;;;1543421;76;1122;-64
2022/11/15 09:06:28;;;;;;;;;;;20.90;47.40;;;;;;1538104;75;589;-65
2022/11/15 09:08:30;;;;;;;;;;;21.10;47.40;;;;;;1537631;75;699;-64
2022/11/15 09:10:32;;;;;;;;;;;21.00;47.30;;;;;;1540008;75;755;-65
2022/11/15 09:12:35;;;;;;;;;;;21.10;47.30;;;;;;1532411;75;679;-64
2022/11/15 09:14:36;;;;;;;;;;;21.00;47.10;;;;;;1547003;75;1490;-64
2022/11/15 09:16:38;;;;;;;;;;;21.10;47.10;;;;;;1529353;75;726;-65
2022/11/15 09:18:40;;;;;;;;;;;21.00;46.90;;;;;;1533556;75;667;-64
2022/11/15 09:20:42;;;;;;;;;;;21.00;46.70;;;;;;1536486;75;708;-64
2022/11/15 09:22:44;;;;;;;;;;;21.10;46.80;;;;;;1539005;75;1933;-64
2022/11/15 09:24:46;;;;;;;;;;;21.00;46.60;;;;;;1532355;75;1146;-64
2022/11/15 09:26:49;;;;;;;;;;;21.10;46.60;;;;;;1541470;75;574;-64
2022/11/15 09:28:51;;;;;;;;;;;21.10;46.70;;;;;;1535413;75;1485;-63
2022/11/15 09:30:55;;;;;;;;;;;21.00;46.50;;;;;;1532083;75;654;-64
2022/11/15 09:32:57;;;;;;;;;;;21.10;46.50;;;;;;1537751;75;1217;-64
2022/11/15 09:34:58;;;;;;;;;;;21.00;46.30;;;;;;1543423;75;680;-65
2022/11/15 09:37:00;;;;;;;;;;;21.10;46.50;;;;;;1531273;75;668;-65
2022/11/15 09:39:02;;;;;;;;;;;21.10;46.40;;;;;;1543106;76;725;-64
2022/11/15 09:41:15;;;;;;;;;;;21.10;46.40;;;;;;1540579;75;708;-65
2022/11/15 09:43:35;;;;;;;;;;;21.10;46.40;;;;;;1538594;75;1943;-65
2022/11/15 09:45:56;;;;;;;;;;;21.00;46.30;;;;;;1540502;75;539;-63
2022/11/15 09:48:00;;;;;;;;;;;21.00;46.20;;;;;;1539788;75;1190;-64
2022/11/15 09:50:02;;;;;;;;;;;21.10;46.30;;;;;;1480908;77;1039;-64
2022/11/15 09:52:04;;;;;;;;;;;21.00;46.20;;;;;;1537150;75;707;-65
2022/11/15 09:54:07;;;;;;;;;;;21.10;46.30;;;;;;1546560;75;1136;-65
2022/11/15 09:56:11;;;;;;;;;;;21.10;46.30;;;;;;1543024;75;1150;-64
2022/11/15 09:58:17;;;;;;;;;;;21.00;46.20;;;;;;1528868;75;1083;-64
2022/11/15 10:00:35;;;;;;;;;;;21.10;46.30;;;;;;1538046;75;1057;-65
2022/11/15 10:02:55;;;;;;;;;;;21.10;46.40;;;;;;1545648;75;1915;-64
2022/11/15 10:04:58;;;;;;;;;;;21.00;46.30;;;;;;1535300;75;812;-64
2022/11/15 10:07:04;;;;;;;;;;;21.10;46.30;;;;;;1545333;75;699;-65
2022/11/15 10:09:14;;;;;;;;;;;21.10;46.40;;;;;;1535098;75;710;-64
2022/11/15 10:11:20;;;;;;;;;;;21.10;46.50;;;;;;1534044;75;1479;-64
2022/11/15 10:13:26;;;;;;;;;;;21.10;46.40;;;;;;1543733;74;1183;-65
2022/11/15 10:15:28;;;;;;;;;;;21.00;46.30;;;;;;1550041;75;665;-64
2022/11/15 10:17:50;;;;;;;;;;;21.00;46.30;;;;;;1538597;75;740;-65
2022/11/15 10:19:59;;;;;;;;;;;21.10;46.50;;;;;;1545504;75;1216;-65
2022/11/15 10:22:05;;;;;;;;;;;21.00;46.30;;;;;;1530222;75;1941;-65
2022/11/15 10:24:13;;;;;;;;;;;21.00;46.40;;;;;;1539821;76;1157;-64
2022/11/15 10:26:16;;;;;;;;;;;21.00;46.30;;;;;;1541097;75;1610;-65
2022/11/15 10:28:25;;;;;;;;;;;21.00;46.30;;;;;;1542571;76;724;-65
2022/11/15 10:30:34;;;;;;;;;;;21.00;46.40;;;;;;1535830;75;1166;-64
2022/11/15 10:32:36;;;;;;;;;;;21.10;46.50;;;;;;1539156;76;628;-65
2022/11/15 10:34:37;;;;;;;;;;;21.10;46.40;;;;;;1547259;75;1098;-65
2022/11/15 10:36:39;;;;;;;;;;;21.10;46.40;;;;;;1546851;75;680;-64
2022/11/15 10:38:52;;;;;;;;;;;21.10;46.40;;;;;;1509574;77;1606;-64
2022/11/15 10:40:54;;;;;;;;;;;21.00;46.30;;;;;;1534204;75;705;-66
2022/11/15 10:43:00;;;;;;;;;;;21.00;46.20;;;;;;1508355;77;2002;-64
2022/11/15 10:45:02;;;;;;;;;;;21.00;46.30;;;;;;1541993;75;1049;-64
2022/11/15 10:47:06;;;;;;;;;;;21.00;46.30;;;;;;1541982;75;615;-65
2022/11/15 10:49:15;;;;;;;;;;;21.00;46.30;;;;;;1541307;74;703;-65
2022/11/15 10:51:22;;;;;;;;;;;21.00;46.20;;;;;;1542703;75;767;-64
2022/11/15 10:53:28;;;;;;;;;;;21.00;46.20;;;;;;1535671;75;1492;-65
2022/11/15 10:55:33;;;;;;;;;;;21.00;46.30;;;;;;1531642;75;666;-66
2022/11/15 10:57:36;;;;;;;;;;;21.00;46.30;;;;;;1543520;75;621;-65
2022/11/15 10:59:38;;;;;;;;;;;21.00;46.30;;;;;;1542377;75;968;-66
2022/11/15 11:01:42;;;;;;;;;;;21.00;46.00;;;;;;1537221;76;673;-65
2022/11/15 11:03:44;;;;;;;;;;;21.00;46.20;;;;;;1534671;75;1928;-65
2022/11/15 11:05:46;;;;;;;;;;;21.00;46.10;;;;;;1541244;75;836;-65
2022/11/15 11:07:48;;;;;;;;;;;21.00;46.20;;;;;;1543855;76;1527;-65
2022/11/15 11:09:52;;;;;;;;;;;20.90;45.90;;;;;;1510830;77;1170;-64
2022/11/15 11:11:53;;;;;;;;;;;20.90;45.90;;;;;;1533184;75;1104;-66
2022/11/15 11:13:55;;;;;;;;;;;20.90;45.70;;;;;;1546451;75;1082;-65
2022/11/15 11:16:11;;;;;;;;;;;20.90;45.70;;;;;;1510618;77;1041;-65
2022/11/15 11:18:17;;;;;;;;;;;20.80;45.80;;;;;;1540501;75;1129;-65
2022/11/15 11:20:27;;;;;;;;;;;20.90;45.70;;;;;;1545706;75;1073;-65
2022/11/15 11:22:40;;;;;;;;;;;20.90;45.60;;;;;;1540349;75;1935;-65
2022/11/15 11:24:52;;;;;;;;;;;20.80;45.60;;;;;;1541444;75;1139;-66
2022/11/15 11:26:55;;;;;;;;;;;20.80;45.30;;;;;;1541878;76;1138;-64
2022/11/15 11:28:59;;;;;;;;;;;20.80;45.20;;;;;;1538944;75;999;-65
2022/11/15 11:31:11;;;;;;;;;;;20.80;45.20;;;;;;1542689;75;1098;-66
2022/11/15 11:33:15;;;;;;;;;;;20.80;45.20;;;;;;1541448;76;1129;-65
2022/11/15 11:35:35;;;;;;;;;;;20.80;45.20;;;;;;1545262;75;1595;-65
2022/11/15 11:37:42;;;;;;;;;;;20.70;45.20;;;;;;1541861;75;634;-65
2022/11/15 11:39:45;;;;;;;;;;;20.70;45.20;;;;;;1542407;76;1118;-65
2022/11/15 11:41:49;;;;;;;;;;;20.70;45.30;;;;;;1533305;76;1148;-64
2022/11/15 11:44:09;;;;;;;;;;;20.80;45.20;;;;;;1532053;76;1929;-64
2022/11/15 11:46:12;;;;;;;;;;;20.70;45.20;;;;;;1538139;76;662;-65
2022/11/15 11:48:15;;;;;;;;;;;20.70;45.10;;;;;;1542225;75;624;-65
2022/11/15 11:50:20;;;;;;;;;;;20.70;45.30;;;;;;1533909;75;1452;-66
2022/11/15 11:52:32;;;;;;;;;;;20.70;45.30;;;;;;1538003;75;1085;-65
2022/11/15 11:54:42;;;;;;;;;;;20.70;45.30;;;;;;1542309;76;1131;-65
2022/11/15 11:56:45;;;;;;;;;;;20.70;45.20;;;;;;1543361;75;1133;-65
2022/11/15 11:58:47;;;;;;;;;;;20.70;45.30;;;;;;1540518;75;624;-65
2022/11/15 12:00:52;;;;;;;;;;;20.70;45.20;;;;;;1541585;75;768;-65
2022/11/15 12:03:12;;;;;;;;;;;20.60;45.20;;;;;;1533032;74;1913;-66
2022/11/15 12:05:16;;;;;;;;;;;20.70;45.50;;;;;;1539572;75;679;-64
2022/11/15 12:07:19;;;;;;;;;;;20.80;46.30;;;;;;1538357;75;1266;-64
2022/11/15 12:09:22;;;;;;;;;;;20.80;45.90;;;;;;1542997;76;687;-65
2022/11/15 12:11:32;;;;;;;;;;;20.90;46.00;;;;;;1538987;75;652;-66
2022/11/15 12:13:36;;;;;;;;;;;20.80;45.80;;;;;;1536183;75;1158;-65
2022/11/15 12:15:39;;;;;;;;;;;20.70;45.70;;;;;;1538214;75;1203;-65
2022/11/15 12:17:41;;;;;;;;;;;20.80;45.80;;;;;;1515165;75;1370;-65
2022/11/15 12:19:42;;;;;;;;;;;20.70;45.70;;;;;;1544743;75;685;-66
2022/11/15 12:21:45;;;;;;;;;;;20.70;45.70;;;;;;1542344;76;724;-65